Du har inga inställningar för hoppväder.nu

Hoppväder.nu

Senast uppdaterat 02:42

UTC-tid

2020-07-07 kl. 00:42


Sol och måne

Solen går upp 4:01 och går ner 23:09 (beräknade cirkatider)
Nästa fullmåne blir om 27 dagar (2020-08-03)

METAR

ESOE (Örebro)
(22 minuter sedan)
ESOE 070020Z AUTO 26007KT 9999 NCD 11/08 Q0999=



ESOK (Karlstad)
(22 minuter sedan)
ESOK 070020Z AUTO 27005KT 9999 R03/P1500N R21///// ////// 11/08 Q1000=



ESGR (Skövde)
(22 minuter sedan)
ESGR 070020Z AUTO /////KT 9999 OVC100/// 12/09 Q1001=



ESSD (Borlänge)
(22 minuter sedan)
ESSD 070020Z AUTO 27009KT 9999 OVC039/// 11/07 Q0996=



ESOW (Västerås)
(22 minuter sedan)
ESOW 070020Z AUTO 27007KT 9999 OVC043/// 12/09 Q0996=



TAF

ESOE (Örebro)
(12 minuter sedan)
ESOE 070030Z 0701/0708 26007KT CAVOK=



ESOK (Karlstad)
ESOK



ESGR (Skövde)
ESGR



ESSD (Borlänge)
ESSD



ESOW (Västerås)
ESOW





Kodnycklar till TAF och METAR






LHP

(Örebro är område se32g i Delområde 4)

Prognos är inte uppdaterad






Preliminär prognos